Time;durP1;ratioP1;P1;durP2;ratioP2;P2;SDS_P1;SDS_P2;PMS_P1;PMS_P2;Temp;Humidity;BMP_temperature;BMP_pressure;BME280_temperature;BME280_humidity;BME280_pressure;Samples;Min_cycle;Max_cycle;Signal;HPM_P1;HPM_P2
2022/07/02 00:01:09;;;;;;;5.70;1.40;;;;;;;;;;5072251;28;20032;-58
2022/07/02 00:03:37;;;;;;;3.33;1.45;;;;;;;;;;5072551;28;20040;-59
2022/07/02 00:06:04;;;;;;;5.47;1.40;;;;;;;;;;5072751;28;20035;-58
2022/07/02 00:08:31;;;;;;;2.13;1.02;;;;;;;;;;5073094;28;20016;-58
2022/07/02 00:10:58;;;;;;;3.75;1.20;;;;;;;;;;5073267;28;20024;-58
2022/07/02 00:13:24;;;;;;;2.25;0.90;;;;;;;;;;5073095;28;20024;-58
2022/07/02 00:15:51;;;;;;;3.22;1.00;;;;;;;;;;5087601;28;20024;-58
2022/07/02 00:18:18;;;;;;;3.58;1.50;;;;;;;;;;5071569;28;20028;-59
2022/07/02 00:20:44;;;;;;;1.40;1.00;;;;;;;;;;5072741;28;20056;-58
2022/07/02 00:23:11;;;;;;;5.05;1.10;;;;;;;;;;5072651;28;20123;-59
2022/07/02 00:25:41;;;;;;;1.70;0.80;;;;;;;;;;5071568;28;20043;-58
2022/07/02 00:28:07;;;;;;;2.15;0.95;;;;;;;;;;5072469;28;20043;-59
2022/07/02 00:30:34;;;;;;;4.13;1.13;;;;;;;;;;5070289;28;20493;-59
2022/07/02 00:33:01;;;;;;;2.78;0.90;;;;;;;;;;5071935;28;20478;-58
2022/07/02 00:35:27;;;;;;;2.20;1.00;;;;;;;;;;5071905;28;20482;-58
2022/07/02 00:37:54;;;;;;;2.60;1.00;;;;;;;;;;5071956;28;20025;-58
2022/07/02 00:40:21;;;;;;;2.70;1.23;;;;;;;;;;5072354;28;20100;-58
2022/07/02 00:42:47;;;;;;;1.63;1.00;;;;;;;;;;5072336;28;20063;-59
2022/07/02 00:45:17;;;;;;;3.80;1.17;;;;;;;;;;5072082;28;20035;-59
2022/07/02 00:47:43;;;;;;;4.85;1.02;;;;;;;;;;5071887;28;20056;-58
2022/07/02 00:50:10;;;;;;;4.60;1.30;;;;;;;;;;5072618;28;20096;-59
2022/07/02 00:52:36;;;;;;;1.98;0.90;;;;;;;;;;5071715;28;20055;-58
2022/07/02 00:55:03;;;;;;;2.00;1.00;;;;;;;;;;5072147;28;20099;-58
2022/07/02 00:57:32;;;;;;;2.17;1.00;;;;;;;;;;5071922;28;20086;-58
2022/07/02 00:59:58;;;;;;;5.20;1.20;;;;;;;;;;5072354;28;20497;-58
2022/07/02 01:02:25;;;;;;;1.67;0.93;;;;;;;;;;5072346;28;20032;-58
2022/07/02 01:04:52;;;;;;;2.90;0.85;;;;;;;;;;5072272;28;20119;-59
2022/07/02 01:07:19;;;;;;;4.20;1.27;;;;;;;;;;5072581;28;20112;-59
2022/07/02 01:12:34;;;;;;;2.30;1.10;;;;;;;;;;5071767;28;20028;-59
2022/07/02 01:15:00;;;;;;;3.75;1.35;;;;;;;;;;5066922;28;20055;-59
2022/07/02 01:17:26;;;;;;;2.67;1.10;;;;;;;;;;5070571;28;20497;-59
2022/07/02 01:19:53;;;;;;;1.90;0.77;;;;;;;;;;5071448;28;20025;-59
2022/07/02 01:22:20;;;;;;;4.88;1.10;;;;;;;;;;5072138;28;20489;-59
2022/07/02 01:24:48;;;;;;;2.00;1.10;;;;;;;;;;5071021;28;20379;-59
2022/07/02 01:27:14;;;;;;;2.20;0.90;;;;;;;;;;5071184;28;20071;-59
2022/07/02 01:29:40;;;;;;;3.40;1.35;;;;;;;;;;5070706;28;20051;-59
2022/07/02 01:32:07;;;;;;;1.45;0.90;;;;;;;;;;5071723;28;20589;-59
2022/07/02 01:34:34;;;;;;;3.67;1.08;;;;;;;;;;5071372;28;20078;-59
2022/07/02 01:37:01;;;;;;;2.17;1.17;;;;;;;;;;5087057;28;20017;-59
2022/07/02 01:39:27;;;;;;;4.38;1.17;;;;;;;;;;5071715;28;20466;-59
2022/07/02 01:41:53;;;;;;;1.90;1.10;;;;;;;;;;5071526;28;20047;-59
2022/07/02 01:44:19;;;;;;;6.25;1.30;;;;;;;;;;5071220;28;20478;-59
2022/07/02 01:46:46;;;;;;;1.42;0.90;;;;;;;;;;5071141;28;20032;-59
2022/07/02 01:49:12;;;;;;;1.85;1.10;;;;;;;;;;5071620;28;20025;-59
2022/07/02 01:51:39;;;;;;;3.10;1.23;;;;;;;;;;5071189;28;20025;-59
2022/07/02 01:54:07;;;;;;;2.50;1.00;;;;;;;;;;5071639;28;20025;-59
2022/07/02 01:56:33;;;;;;;6.07;1.55;;;;;;;;;;5071108;28;20098;-59
2022/07/02 01:59:01;;;;;;;0.98;0.82;;;;;;;;;;5070406;28;20023;-59
2022/07/02 02:01:27;;;;;;;4.45;1.83;;;;;;;;;;5070871;28;20025;-59
2022/07/02 02:03:53;;;;;;;6.10;1.60;;;;;;;;;;5070275;28;20085;-59
2022/07/02 02:06:19;;;;;;;1.60;1.20;;;;;;;;;;5071259;28;20111;-59
2022/07/02 02:08:45;;;;;;;2.80;0.98;;;;;;;;;;5070958;28;20075;-59
2022/07/02 02:11:11;;;;;;;2.95;1.20;;;;;;;;;;5069803;28;20071;-59
2022/07/02 02:13:37;;;;;;;3.75;1.45;;;;;;;;;;5070571;28;20024;-59
2022/07/02 02:16:03;;;;;;;2.15;1.10;;;;;;;;;;5070661;28;20139;-59
2022/07/02 02:18:30;;;;;;;3.10;1.02;;;;;;;;;;5079714;28;20028;-59
2022/07/02 02:20:56;;;;;;;2.53;1.05;;;;;;;;;;5070631;28;20035;-59
2022/07/02 02:23:22;;;;;;;5.40;1.13;;;;;;;;;;5070842;28;20518;-59
2022/07/02 02:25:48;;;;;;;4.03;1.17;;;;;;;;;;5070549;28;20152;-59
2022/07/02 02:28:14;;;;;;;8.20;1.25;;;;;;;;;;5072756;28;20047;-59
2022/07/02 02:30:40;;;;;;;1.73;1.10;;;;;;;;;;5074881;28;20025;-59
2022/07/02 02:33:06;;;;;;;1.33;0.95;;;;;;;;;;5074435;28;20024;-59
2022/07/02 02:35:32;;;;;;;5.75;1.63;;;;;;;;;;5075082;28;20020;-59
2022/07/02 02:37:58;;;;;;;2.28;1.05;;;;;;;;;;5074885;28;20470;-59
2022/07/02 02:40:25;;;;;;;1.83;1.20;;;;;;;;;;5074515;28;20095;-59
2022/07/02 02:42:51;;;;;;;3.25;1.17;;;;;;;;;;5073142;28;20029;-59
2022/07/02 02:45:17;;;;;;;3.65;2.33;;;;;;;;;;5074726;28;20024;-59
2022/07/02 02:47:43;;;;;;;5.35;1.15;;;;;;;;;;5074715;28;20024;-59
2022/07/02 02:50:09;;;;;;;1.13;0.95;;;;;;;;;;5074687;28;20071;-59
2022/07/02 02:52:35;;;;;;;1.83;1.10;;;;;;;;;;5073425;28;20029;-59
2022/07/02 02:55:02;;;;;;;7.60;1.33;;;;;;;;;;5073852;28;20115;-59
2022/07/02 02:57:28;;;;;;;2.80;0.90;;;;;;;;;;5074429;28;20496;-59
2022/07/02 02:59:54;;;;;;;1.27;0.85;;;;;;;;;;5074498;28;20028;-59
2022/07/02 03:02:20;;;;;;;2.13;1.20;;;;;;;;;;5074512;28;20036;-59
2022/07/02 03:04:46;;;;;;;1.98;1.00;;;;;;;;;;5074115;28;20025;-59
2022/07/02 03:07:12;;;;;;;1.10;0.98;;;;;;;;;;5074515;28;20389;-59
2022/07/02 03:09:39;;;;;;;2.78;1.05;;;;;;;;;;5073639;28;20047;-59
2022/07/02 03:12:05;;;;;;;3.00;0.98;;;;;;;;;;5073893;28;20056;-59
2022/07/02 03:14:31;;;;;;;3.03;1.30;;;;;;;;;;5074372;28;20064;-59
2022/07/02 03:16:57;;;;;;;1.60;0.93;;;;;;;;;;5074856;28;20500;-59
2022/07/02 03:19:23;;;;;;;2.70;0.95;;;;;;;;;;5074016;28;20039;-59
2022/07/02 03:21:49;;;;;;;1.95;0.90;;;;;;;;;;5085034;28;20482;-59
2022/07/02 03:24:15;;;;;;;2.58;1.13;;;;;;;;;;5073595;28;20473;-59
2022/07/02 03:26:42;;;;;;;1.55;1.05;;;;;;;;;;5073847;28;20047;-59
2022/07/02 03:29:08;;;;;;;1.52;1.10;;;;;;;;;;5073827;28;20031;-59
2022/07/02 03:31:34;;;;;;;1.67;0.93;;;;;;;;;;5073953;28;20077;-59
2022/07/02 03:34:00;;;;;;;1.55;0.90;;;;;;;;;;5063507;28;20037;-59
2022/07/02 03:36:26;;;;;;;2.78;1.30;;;;;;;;;;5073998;28;20131;-59
2022/07/02 03:38:52;;;;;;;2.08;1.20;;;;;;;;;;5072949;28;20037;-59
2022/07/02 03:41:18;;;;;;;4.68;0.95;;;;;;;;;;5057599;28;20382;-59
2022/07/02 03:43:45;;;;;;;2.30;1.15;;;;;;;;;;5073643;28;20420;-59
2022/07/02 03:46:12;;;;;;;1.50;1.10;;;;;;;;;;5073616;28;20024;-59
2022/07/02 03:48:38;;;;;;;1.75;1.05;;;;;;;;;;5073555;28;20034;-59
2022/07/02 03:51:05;;;;;;;1.95;0.88;;;;;;;;;;5073432;28;20028;-59
2022/07/02 03:53:31;;;;;;;2.70;1.25;;;;;;;;;;5073172;28;20013;-59
2022/07/02 03:55:57;;;;;;;4.63;1.38;;;;;;;;;;5073528;28;20025;-59
2022/07/02 03:58:23;;;;;;;2.17;1.00;;;;;;;;;;5072154;28;20427;-59
2022/07/02 04:00:49;;;;;;;1.10;0.85;;;;;;;;;;5071258;28;20044;-59
2022/07/02 04:03:15;;;;;;;4.78;1.20;;;;;;;;;;5066061;28;20117;-59
2022/07/02 04:05:41;;;;;;;9.48;1.00;;;;;;;;;;5071445;28;20045;-59
2022/07/02 04:08:07;;;;;;;3.25;1.20;;;;;;;;;;5072793;28;20119;-59
2022/07/02 04:10:34;;;;;;;1.58;0.88;;;;;;;;;;5069665;28;20025;-59
2022/07/02 04:13:01;;;;;;;3.28;1.20;;;;;;;;;;5072133;28;20029;-59
2022/07/02 04:15:27;;;;;;;4.80;1.10;;;;;;;;;;5072744;28;20024;-59
2022/07/02 04:17:53;;;;;;;4.15;1.00;;;;;;;;;;5072947;28;20040;-59
2022/07/02 04:20:19;;;;;;;2.40;1.05;;;;;;;;;;5070267;28;20386;-59
2022/07/02 04:22:46;;;;;;;7.65;1.20;;;;;;;;;;5071769;28;20032;-59
2022/07/02 04:25:12;;;;;;;2.20;1.10;;;;;;;;;;5073115;28;20052;-59
2022/07/02 04:27:38;;;;;;;2.53;0.90;;;;;;;;;;5073048;28;20037;-59
2022/07/02 04:30:04;;;;;;;3.70;1.08;;;;;;;;;;5072061;28;20063;-59
2022/07/02 04:32:31;;;;;;;1.75;1.08;;;;;;;;;;5073223;28;20029;-59
2022/07/02 04:34:57;;;;;;;2.25;1.00;;;;;;;;;;5071185;28;20587;-59
2022/07/02 04:37:23;;;;;;;3.72;1.27;;;;;;;;;;5072452;28;20028;-59
2022/07/02 04:39:49;;;;;;;4.63;1.15;;;;;;;;;;5073018;28;20469;-59
2022/07/02 04:42:15;;;;;;;2.40;0.85;;;;;;;;;;5071586;28;20059;-59
2022/07/02 04:44:41;;;;;;;5.00;1.45;;;;;;;;;;5072984;28;20039;-59
2022/07/02 04:47:07;;;;;;;3.10;0.90;;;;;;;;;;5072706;28;20031;-59
2022/07/02 04:49:33;;;;;;;6.40;1.58;;;;;;;;;;5072744;28;20040;-59
2022/07/02 04:51:59;;;;;;;2.00;1.17;;;;;;;;;;5070131;28;20042;-59
2022/07/02 04:54:26;;;;;;;3.38;1.00;;;;;;;;;;5070086;28;20111;-59
2022/07/02 04:56:52;;;;;;;2.50;1.20;;;;;;;;;;5072723;28;20037;-59
2022/07/02 04:59:18;;;;;;;4.00;1.10;;;;;;;;;;5072623;28;20108;-59
2022/07/02 05:01:45;;;;;;;1.92;0.93;;;;;;;;;;5071811;28;20747;-59
2022/07/02 05:04:11;;;;;;;5.05;1.60;;;;;;;;;;5072547;28;20021;-59
2022/07/02 05:06:37;;;;;;;2.55;1.30;;;;;;;;;;5072285;28;20039;-59
2022/07/02 05:09:03;;;;;;;1.70;1.05;;;;;;;;;;5072529;28;20086;-59
2022/07/02 05:11:30;;;;;;;3.75;1.45;;;;;;;;;;5069605;28;20370;-59
2022/07/02 05:13:56;;;;;;;3.38;1.17;;;;;;;;;;5072668;28;20446;-59
2022/07/02 05:16:22;;;;;;;2.70;1.15;;;;;;;;;;5072372;28;20111;-59
2022/07/02 05:18:48;;;;;;;5.03;1.10;;;;;;;;;;5071926;28;20074;-59
2022/07/02 05:21:14;;;;;;;6.50;1.33;;;;;;;;;;5068992;28;20044;-59
2022/07/02 05:23:40;;;;;;;4.93;1.40;;;;;;;;;;5065939;28;20374;-59
2022/07/02 05:26:07;;;;;;;4.60;1.20;;;;;;;;;;5065038;28;20024;-59
2022/07/02 05:28:33;;;;;;;2.05;1.17;;;;;;;;;;5070843;28;20020;-59
2022/07/02 05:30:59;;;;;;;3.00;1.20;;;;;;;;;;5070845;28;20044;-59
2022/07/02 05:33:25;;;;;;;2.67;1.33;;;;;;;;;;5071719;28;20024;-59
2022/07/02 05:35:51;;;;;;;3.72;1.45;;;;;;;;;;5071867;28;20062;-59
2022/07/02 05:38:18;;;;;;;3.45;1.65;;;;;;;;;;5070507;28;20112;-59
2022/07/02 05:40:44;;;;;;;1.38;1.15;;;;;;;;;;5072255;28;20393;-59
2022/07/02 05:43:10;;;;;;;4.10;1.77;;;;;;;;;;5071603;28;20024;-59
2022/07/02 05:45:36;;;;;;;11.30;2.00;;;;;;;;;;5070839;28;20067;-59
2022/07/02 05:48:03;;;;;;;3.45;1.65;;;;;;;;;;5071467;28;20017;-59
2022/07/02 05:50:29;;;;;;;4.47;1.67;;;;;;;;;;5070871;28;20029;-59
2022/07/02 05:52:55;;;;;;;3.75;1.92;;;;;;;;;;5066760;28;20450;-59
2022/07/02 05:55:21;;;;;;;4.63;1.70;;;;;;;;;;5069806;28;20029;-60
2022/07/02 05:57:47;;;;;;;3.63;2.22;;;;;;;;;;5070560;28;20040;-60
2022/07/02 06:00:14;;;;;;;8.07;1.83;;;;;;;;;;5066387;28;20452;-59
2022/07/02 06:02:40;;;;;;;4.05;2.00;;;;;;;;;;5069417;28;20051;-59
2022/07/02 06:07:52;;;;;;;6.05;1.52;;;;;;;;;;5073758;28;20028;-59
2022/07/02 06:10:18;;;;;;;8.80;1.45;;;;;;;;;;5073479;28;20024;-59
2022/07/02 06:12:48;;;;;;;4.00;1.88;;;;;;;;;;5073952;28;20024;-59
2022/07/02 06:15:15;;;;;;;7.03;1.73;;;;;;;;;;5070428;28;20024;-59
2022/07/02 06:17:41;;;;;;;3.55;1.48;;;;;;;;;;5073485;28;20382;-60
2022/07/02 06:20:08;;;;;;;9.77;1.80;;;;;;;;;;5072343;28;20024;-59
2022/07/02 06:22:34;;;;;;;3.67;1.33;;;;;;;;;;5070812;28;20028;-59
2022/07/02 06:25:00;;;;;;;2.65;1.35;;;;;;;;;;5073907;28;20063;-60
2022/07/02 06:27:26;;;;;;;4.65;1.20;;;;;;;;;;5072891;28;20489;-60
2022/07/02 06:29:53;;;;;;;4.68;1.30;;;;;;;;;;5073343;28;20016;-60
2022/07/02 06:32:19;;;;;;;8.43;1.20;;;;;;;;;;5073359;28;20044;-60
2022/07/02 06:34:45;;;;;;;5.47;1.52;;;;;;;;;;5078780;28;20452;-60
2022/07/02 06:37:12;;;;;;;5.18;1.27;;;;;;;;;;5071752;28;20032;-60
2022/07/02 06:39:38;;;;;;;4.20;1.20;;;;;;;;;;5072520;28;20028;-60
2022/07/02 06:42:19;;;;;;;2.20;1.23;;;;;;;;;;5073366;28;20032;-60
2022/07/02 06:44:47;;;;;;;4.40;1.88;;;;;;;;;;5071922;28;20111;-60
2022/07/02 06:47:14;;;;;;;1.55;0.90;;;;;;;;;;5072779;28;20025;-60
2022/07/02 06:49:40;;;;;;;2.42;1.00;;;;;;;;;;5073295;28;20123;-60
2022/07/02 06:52:07;;;;;;;4.50;1.00;;;;;;;;;;5073333;28;20028;-60
2022/07/02 06:54:33;;;;;;;2.75;1.30;;;;;;;;;;5068684;28;20060;-60
2022/07/02 06:57:00;;;;;;;3.70;0.98;;;;;;;;;;5069073;28;20103;-60
2022/07/02 06:59:26;;;;;;;4.82;1.00;;;;;;;;;;5072312;28;21484;-60
2022/07/02 07:01:52;;;;;;;3.88;1.10;;;;;;;;;;5073112;28;20378;-60
2022/07/02 07:04:18;;;;;;;6.13;1.40;;;;;;;;;;5070345;28;20032;-60
2022/07/02 07:06:54;;;;;;;3.67;1.30;;;;;;;;;;5065740;28;20032;-60
2022/07/02 07:09:20;;;;;;;4.30;1.05;;;;;;;;;;5067429;28;20512;-60
2022/07/02 07:11:47;;;;;;;4.03;1.00;;;;;;;;;;5059309;28;20459;-60
2022/07/02 07:14:13;;;;;;;4.05;1.23;;;;;;;;;;5061924;28;20029;-60
2022/07/02 07:16:39;;;;;;;8.20;1.17;;;;;;;;;;5064107;28;20029;-60
2022/07/02 07:19:06;;;;;;;5.22;2.13;;;;;;;;;;5065291;28;20047;-60
2022/07/02 07:21:32;;;;;;;2.08;0.90;;;;;;;;;;5068607;28;20012;-60
2022/07/02 07:23:59;;;;;;;4.15;0.82;;;;;;;;;;5057320;28;20055;-60
2022/07/02 07:26:25;;;;;;;2.05;1.10;;;;;;;;;;5055780;28;20064;-60
2022/07/02 07:28:51;;;;;;;1.48;0.90;;;;;;;;;;5068289;28;20099;-60
2022/07/02 07:31:20;;;;;;;2.67;1.13;;;;;;;;;;5063389;28;20502;-60
2022/07/02 07:33:54;;;;;;;4.15;0.90;;;;;;;;;;5066446;28;20498;-60
2022/07/02 07:36:21;;;;;;;2.83;1.10;;;;;;;;;;5068806;28;20094;-60
2022/07/02 07:38:47;;;;;;;4.78;1.00;;;;;;;;;;5068065;28;20044;-60
2022/07/02 07:41:14;;;;;;;1.42;0.80;;;;;;;;;;5059643;28;20496;-60
2022/07/02 07:43:40;;;;;;;1.23;0.80;;;;;;;;;;5062013;28;20427;-60
2022/07/02 07:46:06;;;;;;;3.70;0.75;;;;;;;;;;5062675;28;20021;-60
2022/07/02 07:48:32;;;;;;;3.42;1.10;;;;;;;;;;5053331;28;20466;-60
2022/07/02 07:50:59;;;;;;;4.38;1.23;;;;;;;;;;5055559;28;20024;-60
2022/07/02 07:53:25;;;;;;;3.20;0.98;;;;;;;;;;5053792;28;20466;-60
2022/07/02 07:55:51;;;;;;;3.30;1.00;;;;;;;;;;5065573;28;20062;-60
2022/07/02 07:58:18;;;;;;;4.00;1.15;;;;;;;;;;5061124;28;20077;-60
2022/07/02 08:00:44;;;;;;;3.83;1.02;;;;;;;;;;5053043;28;20134;-60
2022/07/02 08:03:10;;;;;;;2.70;0.98;;;;;;;;;;5054940;28;20024;-60
2022/07/02 08:05:37;;;;;;;4.60;1.25;;;;;;;;;;5058783;28;20434;-60
2022/07/02 08:08:03;;;;;;;2.58;0.90;;;;;;;;;;5058164;28;20020;-60
2022/07/02 08:10:29;;;;;;;3.67;0.98;;;;;;;;;;5060751;28;20040;-60
2022/07/02 08:12:56;;;;;;;5.93;0.90;;;;;;;;;;5061798;28;20507;-60
2022/07/02 08:15:22;;;;;;;3.65;1.10;;;;;;;;;;5068808;28;20012;-60
2022/07/02 08:17:48;;;;;;;3.45;1.25;;;;;;;;;;5062575;28;20098;-60
2022/07/02 08:20:14;;;;;;;1.10;0.70;;;;;;;;;;5057965;28;20029;-60
2022/07/02 08:22:40;;;;;;;2.22;0.90;;;;;;;;;;5053120;28;20025;-60
2022/07/02 08:25:07;;;;;;;3.35;0.80;;;;;;;;;;5057781;28;20024;-60
2022/07/02 08:27:33;;;;;;;6.35;1.15;;;;;;;;;;5065822;28;20128;-60
2022/07/02 08:30:00;;;;;;;2.28;0.95;;;;;;;;;;5070434;28;20039;-60
2022/07/02 08:32:26;;;;;;;1.73;0.98;;;;;;;;;;5069461;28;20033;-65
2022/07/02 08:34:54;;;;;;;4.43;1.00;;;;;;;;;;5070738;28;20029;-60
2022/07/02 08:37:22;;;;;;;4.10;1.13;;;;;;;;;;5071096;28;20029;-60
2022/07/02 08:39:48;;;;;;;2.92;0.93;;;;;;;;;;5071481;28;20033;-60
2022/07/02 08:42:25;;;;;;;1.55;0.80;;;;;;;;;;5072504;28;20039;-60
2022/07/02 08:44:52;;;;;;;6.55;1.35;;;;;;;;;;5071787;28;20036;-60
2022/07/02 08:47:19;;;;;;;2.00;0.88;;;;;;;;;;5066676;28;20040;-60
2022/07/02 08:49:47;;;;;;;7.32;1.80;;;;;;;;;;5072185;28;20060;-60
2022/07/02 08:52:16;;;;;;;4.22;0.70;;;;;;;;;;5071749;28;20409;-59
2022/07/02 08:54:43;;;;;;;3.60;0.80;;;;;;;;;;5072433;28;20020;-60
2022/07/02 08:57:10;;;;;;;2.50;0.82;;;;;;;;;;5071296;28;20059;-60
2022/07/02 08:59:37;;;;;;;2.15;0.88;;;;;;;;;;5071227;28;20156;-60
2022/07/02 09:02:03;;;;;;;3.40;0.60;;;;;;;;;;5066654;28;20029;-60
2022/07/02 09:04:30;;;;;;;5.43;1.10;;;;;;;;;;5069917;28;20028;-60
2022/07/02 09:06:59;;;;;;;6.97;1.40;;;;;;;;;;5068877;28;20059;-60
2022/07/02 09:09:26;;;;;;;2.15;0.70;;;;;;;;;;5068412;28;20115;-60
2022/07/02 09:11:53;;;;;;;5.90;1.25;;;;;;;;;;5068852;28;20029;-60
2022/07/02 09:14:19;;;;;;;7.10;0.93;;;;;;;;;;5070606;28;20097;-60
2022/07/02 09:16:46;;;;;;;3.17;1.00;;;;;;;;;;5068954;28;20041;-60
2022/07/02 09:19:12;;;;;;;4.78;1.05;;;;;;;;;;5070854;28;20039;-60
2022/07/02 09:21:56;;;;;;;4.35;1.10;;;;;;;;;;5071159;28;20055;-60
2022/07/02 09:24:32;;;;;;;2.72;0.80;;;;;;;;;;5072281;28;20036;-60
2022/07/02 09:26:59;;;;;;;3.45;1.10;;;;;;;;;;5069352;28;20036;-60
2022/07/02 09:29:25;;;;;;;4.80;1.23;;;;;;;;;;5069831;28;20056;-60
2022/07/02 09:31:51;;;;;;;31.98;3.55;;;;;;;;;;5071490;28;20588;-60
2022/07/02 09:34:25;;;;;;;54.60;7.03;;;;;;;;;;5070784;28;20032;-60
2022/07/02 09:36:51;;;;;;;8.98;1.58;;;;;;;;;;5073503;28;20056;-60
2022/07/02 09:39:26;;;;;;;5.32;1.20;;;;;;;;;;5075801;28;20024;-60
2022/07/02 09:41:52;;;;;;;2.05;0.70;;;;;;;;;;5074410;28;20036;-61
2022/07/02 09:44:18;;;;;;;3.13;0.70;;;;;;;;;;5074935;28;20470;-60
2022/07/02 09:46:45;;;;;;;4.28;0.80;;;;;;;;;;5076176;28;20033;-61
2022/07/02 09:49:12;;;;;;;1.65;0.82;;;;;;;;;;5075605;28;20027;-61
2022/07/02 09:52:05;;;;;;;4.55;0.98;;;;;;;;;;5069792;28;20028;-61
2022/07/02 09:54:31;;;;;;;7.20;1.25;;;;;;;;;;5073274;28;20036;-61
2022/07/02 09:56:58;;;;;;;43.65;6.30;;;;;;;;;;5074693;28;20052;-61
2022/07/02 09:59:25;;;;;;;5.57;1.17;;;;;;;;;;5071932;28;20024;-61
2022/07/02 10:01:51;;;;;;;3.08;0.88;;;;;;;;;;5074921;28;20029;-61
2022/07/02 10:04:30;;;;;;;3.28;0.90;;;;;;;;;;5072053;28;20078;-61
2022/07/02 10:06:58;;;;;;;3.25;0.98;;;;;;;;;;5074077;28;20031;-61
2022/07/02 10:09:25;;;;;;;2.63;0.90;;;;;;;;;;5070234;28;20074;-61
2022/07/02 10:11:52;;;;;;;3.22;1.05;;;;;;;;;;5073762;28;20587;-60
2022/07/02 10:14:20;;;;;;;2.38;0.88;;;;;;;;;;5074508;28;20025;-61
2022/07/02 10:16:50;;;;;;;2.53;0.93;;;;;;;;;;5072858;28;20512;-60
2022/07/02 10:19:17;;;;;;;2.58;1.00;;;;;;;;;;5072653;28;20203;-60
2022/07/02 10:21:44;;;;;;;2.55;0.75;;;;;;;;;;5073357;28;20032;-60
2022/07/02 10:24:11;;;;;;;3.10;1.02;;;;;;;;;;5072977;28;20116;-60
2022/07/02 10:26:38;;;;;;;4.65;0.70;;;;;;;;;;5073866;28;20072;-60
2022/07/02 10:29:04;;;;;;;9.30;1.55;;;;;;;;;;5073241;28;20029;-60
2022/07/02 10:31:42;;;;;;;1.55;0.60;;;;;;;;;;5074958;28;20025;-60
2022/07/02 10:34:12;;;;;;;3.00;0.80;;;;;;;;;;5074093;28;20466;-60
2022/07/02 10:36:38;;;;;;;3.58;0.88;;;;;;;;;;5074701;28;20035;-60
2022/07/02 10:39:06;;;;;;;1.70;0.70;;;;;;;;;;5074446;28;20064;-60
2022/07/02 10:41:32;;;;;;;1.73;1.02;;;;;;;;;;5074924;28;20036;-60
2022/07/02 10:43:59;;;;;;;1.95;0.77;;;;;;;;;;5074208;28;20032;-60
2022/07/02 10:46:27;;;;;;;6.18;1.00;;;;;;;;;;5074887;28;20131;-60
2022/07/02 10:48:53;;;;;;;6.40;1.38;;;;;;;;;;5072204;28;20025;-60
2022/07/02 10:51:19;;;;;;;3.60;0.75;;;;;;;;;;5071183;28;20025;-60
2022/07/02 10:53:52;;;;;;;5.97;0.90;;;;;;;;;;5072963;28;20100;-60
2022/07/02 10:56:18;;;;;;;1.98;0.68;;;;;;;;;;5073198;28;20031;-60
2022/07/02 10:58:44;;;;;;;2.83;1.30;;;;;;;;;;5072415;28;20063;-60
2022/07/02 11:01:15;;;;;;;3.33;0.80;;;;;;;;;;5072050;28;20155;-60
2022/07/02 11:03:54;;;;;;;2.63;1.00;;;;;;;;;;5071622;28;20145;-61
2022/07/02 11:06:24;;;;;;;3.22;0.82;;;;;;;;;;5071366;28;20033;-60
2022/07/02 11:08:54;;;;;;;0.85;0.70;;;;;;;;;;5072592;28;20039;-60
2022/07/02 11:11:21;;;;;;;3.67;0.70;;;;;;;;;;5071988;28;20066;-60
2022/07/02 11:13:55;;;;;;;1.38;0.80;;;;;;;;;;5088067;28;20025;-60
2022/07/02 11:16:21;;;;;;;2.20;0.82;;;;;;;;;;5070463;28;20029;-60
2022/07/02 11:18:48;;;;;;;2.60;0.70;;;;;;;;;;5072553;28;20024;-60
2022/07/02 11:21:14;;;;;;;2.25;0.70;;;;;;;;;;5073751;28;20024;-66
2022/07/02 11:23:41;;;;;;;0.60;0.47;;;;;;;;;;5070294;28;20428;-60
2022/07/02 11:26:07;;;;;;;2.85;0.70;;;;;;;;;;5068251;28;20021;-60
2022/07/02 11:28:34;;;;;;;2.70;1.10;;;;;;;;;;5067952;28;20032;-60
2022/07/02 11:31:02;;;;;;;1.38;0.70;;;;;;;;;;5071613;28;20547;-60
2022/07/02 11:33:28;;;;;;;3.47;1.02;;;;;;;;;;5066217;28;20017;-60
2022/07/02 11:35:55;;;;;;;2.75;0.73;;;;;;;;;;5068069;28;20112;-60
2022/07/02 11:38:21;;;;;;;1.88;0.50;;;;;;;;;;5068718;28;20058;-60
2022/07/02 11:40:48;;;;;;;1.65;0.70;;;;;;;;;;5064990;28;20024;-60
2022/07/02 11:43:15;;;;;;;2.90;0.70;;;;;;;;;;5071186;28;20462;-60
2022/07/02 11:45:42;;;;;;;1.75;0.88;;;;;;;;;;5070074;28;20400;-60
2022/07/02 11:48:18;;;;;;;1.85;0.63;;;;;;;;;;5068160;28;20478;-60
2022/07/02 11:50:44;;;;;;;1.08;0.52;;;;;;;;;;5070598;28;20493;-60
2022/07/02 11:53:10;;;;;;;2.15;0.47;;;;;;;;;;5066031;28;20059;-60
2022/07/02 11:55:36;;;;;;;3.53;0.60;;;;;;;;;;5070437;28;20402;-60
2022/07/02 11:58:03;;;;;;;3.00;0.57;;;;;;;;;;5064643;28;20020;-60
2022/07/02 12:00:30;;;;;;;2.67;0.88;;;;;;;;;;5063526;28;20033;-60
2022/07/02 12:02:57;;;;;;;2.28;0.90;;;;;;;;;;5071440;28;20438;-60
2022/07/02 12:05:24;;;;;;;2.03;0.70;;;;;;;;;;5071382;28;20032;-60
2022/07/02 12:07:50;;;;;;;4.30;0.90;;;;;;;;;;5069127;28;20438;-60
2022/07/02 12:10:16;;;;;;;4.75;1.00;;;;;;;;;;5055779;28;20575;-60
2022/07/02 12:12:42;;;;;;;4.10;1.00;;;;;;;;;;5063613;28;20481;-59
2022/07/02 12:15:09;;;;;;;7.30;0.93;;;;;;;;;;5052780;28;20025;-60
2022/07/02 12:17:36;;;;;;;4.03;1.77;;;;;;;;;;5057165;28;20091;-59
2022/07/02 12:20:03;;;;;;;4.25;0.80;;;;;;;;;;5056763;28;20029;-59
2022/07/02 12:22:29;;;;;;;6.32;0.88;;;;;;;;;;5054646;28;20490;-59
2022/07/02 12:24:56;;;;;;;2.83;0.90;;;;;;;;;;5054868;28;20032;-59
2022/07/02 12:27:25;;;;;;;3.83;1.00;;;;;;;;;;5052737;28;20072;-59
2022/07/02 12:29:56;;;;;;;2.42;0.90;;;;;;;;;;5055003;28;20036;-60
2022/07/02 12:32:32;;;;;;;5.78;1.00;;;;;;;;;;5054236;28;20028;-59
2022/07/02 12:35:10;;;;;;;3.55;1.20;;;;;;;;;;5054891;28;20024;-59
2022/07/02 12:37:47;;;;;;;2.05;0.80;;;;;;;;;;5057630;28;20039;-59
2022/07/02 12:40:14;;;;;;;3.03;1.10;;;;;;;;;;5056430;28;20089;-60
2022/07/02 12:42:46;;;;;;;4.03;0.80;;;;;;;;;;5053965;28;20509;-60
2022/07/02 12:45:23;;;;;;;1.33;0.50;;;;;;;;;;5055062;28;20032;-60
2022/07/02 12:48:01;;;;;;;2.88;0.70;;;;;;;;;;5060795;28;20051;-60
2022/07/02 12:50:29;;;;;;;1.77;0.70;;;;;;;;;;5058285;28;20074;-59
2022/07/02 12:52:55;;;;;;;2.55;0.95;;;;;;;;;;5057623;28;20525;-59
2022/07/02 12:55:23;;;;;;;1.25;0.70;;;;;;;;;;5073337;28;20028;-60
2022/07/02 12:57:49;;;;;;;3.50;0.80;;;;;;;;;;5070333;28;20024;-59
2022/07/02 13:00:15;;;;;;;3.95;0.80;;;;;;;;;;5072389;28;20362;-60
2022/07/02 13:02:41;;;;;;;3.50;0.90;;;;;;;;;;5071927;28;20090;-59
2022/07/02 13:05:08;;;;;;;4.30;0.70;;;;;;;;;;5070420;28;20028;-59
2022/07/02 13:07:34;;;;;;;1.90;0.70;;;;;;;;;;5055584;28;20437;-59
2022/07/02 13:10:00;;;;;;;3.53;1.00;;;;;;;;;;5056191;28;20028;-59
2022/07/02 13:12:26;;;;;;;2.80;0.95;;;;;;;;;;5058344;28;20144;-59
2022/07/02 13:14:52;;;;;;;3.15;0.70;;;;;;;;;;5063276;28;20060;-59
2022/07/02 13:17:18;;;;;;;1.88;0.93;;;;;;;;;;5068548;28;20108;-59
2022/07/02 13:19:45;;;;;;;2.25;0.60;;;;;;;;;;5063593;28;20020;-59
2022/07/02 13:22:12;;;;;;;1.00;0.63;;;;;;;;;;5056415;28;20029;-59
2022/07/02 13:24:38;;;;;;;5.30;0.95;;;;;;;;;;5058379;28;20546;-59
2022/07/02 13:27:05;;;;;;;3.80;0.90;;;;;;;;;;5060141;28;20064;-59
2022/07/02 13:29:31;;;;;;;3.35;0.70;;;;;;;;;;5057459;28;20457;-59
2022/07/02 13:31:59;;;;;;;2.78;0.85;;;;;;;;;;5058881;28;20039;-59
2022/07/02 13:34:26;;;;;;;5.68;0.82;;;;;;;;;;5054671;28;20040;-59
2022/07/02 13:36:52;;;;;;;4.05;1.13;;;;;;;;;;5059707;28;20067;-59
2022/07/02 13:39:18;;;;;;;2.53;1.08;;;;;;;;;;5054216;28;20021;-59
2022/07/02 13:41:44;;;;;;;2.17;0.70;;;;;;;;;;5057506;28;20025;-59
2022/07/02 13:44:10;;;;;;;4.07;0.85;;;;;;;;;;5058820;28;20402;-59
2022/07/02 13:46:36;;;;;;;1.23;0.75;;;;;;;;;;5056300;28;20517;-59
2022/07/02 13:49:03;;;;;;;3.67;1.10;;;;;;;;;;5057323;28;20029;-59
2022/07/02 13:51:30;;;;;;;2.17;0.75;;;;;;;;;;5058413;28;20427;-59
2022/07/02 13:53:56;;;;;;;1.55;0.82;;;;;;;;;;5064626;28;20025;-59
2022/07/02 13:56:23;;;;;;;2.08;0.55;;;;;;;;;;5069482;28;20029;-59
2022/07/02 13:58:49;;;;;;;1.98;0.70;;;;;;;;;;5069893;28;20390;-59
2022/07/02 14:01:15;;;;;;;2.83;0.50;;;;;;;;;;5070343;28;20032;-59
2022/07/02 14:03:41;;;;;;;1.38;0.80;;;;;;;;;;5069767;28;20066;-59
2022/07/02 14:06:07;;;;;;;5.13;0.70;;;;;;;;;;5071426;28;20090;-59
2022/07/02 14:08:33;;;;;;;2.08;0.65;;;;;;;;;;5069824;28;20398;-59
2022/07/02 14:11:00;;;;;;;8.15;1.10;;;;;;;;;;5070105;28;20036;-59
2022/07/02 14:13:26;;;;;;;3.08;0.93;;;;;;;;;;5069939;28;20060;-59
2022/07/02 14:15:52;;;;;;;13.23;2.00;;;;;;;;;;5070674;28;20029;-59
2022/07/02 14:18:18;;;;;;;8.88;1.70;;;;;;;;;;5070166;28;20517;-59
2022/07/02 14:20:44;;;;;;;7.82;1.40;;;;;;;;;;5067333;28;20025;-59
2022/07/02 14:23:10;;;;;;;6.53;1.65;;;;;;;;;;5071288;28;20036;-59
2022/07/02 14:25:36;;;;;;;6.78;1.55;;;;;;;;;;5073048;28;20024;-59
2022/07/02 14:28:03;;;;;;;5.13;1.00;;;;;;;;;;5074460;28;20413;-59
2022/07/02 14:30:29;;;;;;;6.82;1.13;;;;;;;;;;5074533;28;20107;-59
2022/07/02 14:32:55;;;;;;;6.07;1.10;;;;;;;;;;5073366;28;20021;-59
2022/07/02 14:35:21;;;;;;;4.10;1.50;;;;;;;;;;5074464;28;20032;-59
2022/07/02 14:37:47;;;;;;;4.30;1.20;;;;;;;;;;5073509;28;20043;-57
2022/07/02 14:40:13;;;;;;;5.63;1.40;;;;;;;;;;5069688;28;20016;-57
2022/07/02 14:42:40;;;;;;;6.40;1.45;;;;;;;;;;5060366;28;20063;-59
2022/07/02 14:45:06;;;;;;;8.27;1.73;;;;;;;;;;5056216;28;20074;-60
2022/07/02 14:47:32;;;;;;;4.72;1.30;;;;;;;;;;5055144;28;20046;-59